sensor_id;sensor_type;location;lat;lon;timestamp;temperature;humidity
49829;DHT22;35723;51.194;5.112;2022-07-03T00:01:55;17.80;99.90
49829;DHT22;35723;51.194;5.112;2022-07-03T00:04:21;17.60;99.90
49829;DHT22;35723;51.194;5.112;2022-07-03T00:06:47;17.40;99.90
49829;DHT22;35723;51.194;5.112;2022-07-03T00:09:14;17.30;99.90
49829;DHT22;35723;51.194;5.112;2022-07-03T00:11:40;17.20;99.90
49829;DHT22;35723;51.194;5.112;2022-07-03T00:14:05;17.20;99.90
49829;DHT22;35723;51.194;5.112;2022-07-03T00:16:31;17.20;99.90
49829;DHT22;35723;51.194;5.112;2022-07-03T00:18:57;17.20;99.90
49829;DHT22;35723;51.194;5.112;2022-07-03T00:21:29;17.30;99.90
49829;DHT22;35723;51.194;5.112;2022-07-03T00:24:02;17.30;99.90
49829;DHT22;35723;51.194;5.112;2022-07-03T00:26:36;17.30;99.90
49829;DHT22;35723;51.194;5.112;2022-07-03T00:29:03;17.30;99.90
49829;DHT22;35723;51.194;5.112;2022-07-03T00:31:31;17.40;99.90
49829;DHT22;35723;51.194;5.112;2022-07-03T00:33:59;17.40;99.90
49829;DHT22;35723;51.194;5.112;2022-07-03T00:36:34;17.40;99.90
49829;DHT22;35723;51.194;5.112;2022-07-03T00:39:00;17.50;99.90
49829;DHT22;35723;51.194;5.112;2022-07-03T00:41:28;17.50;99.90
49829;DHT22;35723;51.194;5.112;2022-07-03T00:43:55;17.40;99.90
49829;DHT22;35723;51.194;5.112;2022-07-03T00:46:22;17.50;99.90
49829;DHT22;35723;51.194;5.112;2022-07-03T00:48:49;17.50;99.90
49829;DHT22;35723;51.194;5.112;2022-07-03T00:51:22;17.50;99.90
49829;DHT22;35723;51.194;5.112;2022-07-03T00:53:56;17.50;99.90
49829;DHT22;35723;51.194;5.112;2022-07-03T00:56:27;17.60;99.90
49829;DHT22;35723;51.194;5.112;2022-07-03T00:58:58;17.70;99.90
49829;DHT22;35723;51.194;5.112;2022-07-03T01:01:26;17.90;99.90
49829;DHT22;35723;51.194;5.112;2022-07-03T01:06:52;18.00;99.90
49829;DHT22;35723;51.194;5.112;2022-07-03T01:09:26;17.90;99.90
49829;DHT22;35723;51.194;5.112;2022-07-03T01:12:09;17.80;99.90
49829;DHT22;35723;51.194;5.112;2022-07-03T01:14:43;17.90;99.90
49829;DHT22;35723;51.194;5.112;2022-07-03T01:17:23;17.90;99.90
49829;DHT22;35723;51.194;5.112;2022-07-03T01:19:55;18.00;99.90
49829;DHT22;35723;51.194;5.112;2022-07-03T01:22:36;18.10;99.90
49829;DHT22;35723;51.194;5.112;2022-07-03T01:30:22;18.20;99.90
49829;DHT22;35723;51.194;5.112;2022-07-03T01:35:40;18.30;99.90
49829;DHT22;35723;51.194;5.112;2022-07-03T01:38:08;18.50;99.90
49829;DHT22;35723;51.194;5.112;2022-07-03T01:40:37;18.40;99.90
49829;DHT22;35723;51.194;5.112;2022-07-03T01:43:06;18.20;99.90
49829;DHT22;35723;51.194;5.112;2022-07-03T01:45:36;18.10;99.90
49829;DHT22;35723;51.194;5.112;2022-07-03T01:48:02;18.10;99.90
49829;DHT22;35723;51.194;5.112;2022-07-03T01:50:30;18.20;99.90
49829;DHT22;35723;51.194;5.112;2022-07-03T01:52:59;18.30;99.90
49829;DHT22;35723;51.194;5.112;2022-07-03T01:55:30;18.20;99.90
49829;DHT22;35723;51.194;5.112;2022-07-03T01:57:56;18.20;99.90
49829;DHT22;35723;51.194;5.112;2022-07-03T02:00:23;17.90;99.90
49829;DHT22;35723;51.194;5.112;2022-07-03T02:03:19;17.80;99.90
49829;DHT22;35723;51.194;5.112;2022-07-03T02:05:47;17.80;99.90
49829;DHT22;35723;51.194;5.112;2022-07-03T02:08:43;17.80;99.90
49829;DHT22;35723;51.194;5.112;2022-07-03T02:11:09;18.00;99.90
49829;DHT22;35723;51.194;5.112;2022-07-03T02:13:45;17.80;99.90
49829;DHT22;35723;51.194;5.112;2022-07-03T02:16:19;17.80;99.90
49829;DHT22;35723;51.194;5.112;2022-07-03T02:18:54;17.70;99.90
49829;DHT22;35723;51.194;5.112;2022-07-03T02:21:21;17.80;99.90
49829;DHT22;35723;51.194;5.112;2022-07-03T02:24:18;17.70;99.90
49829;DHT22;35723;51.194;5.112;2022-07-03T02:26:52;17.40;99.90
49829;DHT22;35723;51.194;5.112;2022-07-03T02:29:21;17.30;99.90
49829;DHT22;35723;51.194;5.112;2022-07-03T02:31:59;17.30;99.90
49829;DHT22;35723;51.194;5.112;2022-07-03T02:34:25;17.40;99.90
49829;DHT22;35723;51.194;5.112;2022-07-03T02:36:56;17.50;99.90
49829;DHT22;35723;51.194;5.112;2022-07-03T02:39:44;17.60;99.90
49829;DHT22;35723;51.194;5.112;2022-07-03T02:42:29;17.60;99.90
49829;DHT22;35723;51.194;5.112;2022-07-03T02:44:59;17.30;99.90
49829;DHT22;35723;51.194;5.112;2022-07-03T02:47:35;17.40;99.90
49829;DHT22;35723;51.194;5.112;2022-07-03T02:50:05;17.30;99.90
49829;DHT22;35723;51.194;5.112;2022-07-03T03:03:30;17.30;99.90
49829;DHT22;35723;51.194;5.112;2022-07-03T03:06:12;17.10;99.90
49829;DHT22;35723;51.194;5.112;2022-07-03T03:08:50;17.00;99.90
49829;DHT22;35723;51.194;5.112;2022-07-03T03:14:08;17.00;99.90
49829;DHT22;35723;51.194;5.112;2022-07-03T03:16:36;17.00;99.90
49829;DHT22;35723;51.194;5.112;2022-07-03T03:19:04;17.00;99.90
49829;DHT22;35723;51.194;5.112;2022-07-03T03:21:31;17.00;99.90
49829;DHT22;35723;51.194;5.112;2022-07-03T03:24:02;17.00;99.90
49829;DHT22;35723;51.194;5.112;2022-07-03T03:26:28;17.20;99.90
49829;DHT22;35723;51.194;5.112;2022-07-03T03:28:56;17.40;99.90
49829;DHT22;35723;51.194;5.112;2022-07-03T03:31:21;17.20;99.90
49829;DHT22;35723;51.194;5.112;2022-07-03T03:33:49;17.10;99.90
49829;DHT22;35723;51.194;5.112;2022-07-03T03:36:17;16.90;99.90
49829;DHT22;35723;51.194;5.112;2022-07-03T03:38:43;17.00;99.90
49829;DHT22;35723;51.194;5.112;2022-07-03T03:41:09;16.90;99.90
49829;DHT22;35723;51.194;5.112;2022-07-03T03:43:36;17.00;99.90
49829;DHT22;35723;51.194;5.112;2022-07-03T03:46:02;17.10;99.90
49829;DHT22;35723;51.194;5.112;2022-07-03T03:48:29;17.10;99.90
49829;DHT22;35723;51.194;5.112;2022-07-03T03:50:59;17.00;99.90
49829;DHT22;35723;51.194;5.112;2022-07-03T03:53:25;16.90;99.90
49829;DHT22;35723;51.194;5.112;2022-07-03T03:56:06;16.80;99.90
49829;DHT22;35723;51.194;5.112;2022-07-03T03:58:33;16.80;99.90
49829;DHT22;35723;51.194;5.112;2022-07-03T04:01:01;16.80;99.90
49829;DHT22;35723;51.194;5.112;2022-07-03T04:03:28;17.00;99.90
49829;DHT22;35723;51.194;5.112;2022-07-03T04:05:54;17.10;99.90
49829;DHT22;35723;51.194;5.112;2022-07-03T04:08:21;17.40;99.90
49829;DHT22;35723;51.194;5.112;2022-07-03T04:10:48;17.40;99.90
49829;DHT22;35723;51.194;5.112;2022-07-03T04:13:14;17.30;99.90
49829;DHT22;35723;51.194;5.112;2022-07-03T04:15:40;17.10;99.90
49829;DHT22;35723;51.194;5.112;2022-07-03T04:18:06;17.20;99.90
49829;DHT22;35723;51.194;5.112;2022-07-03T04:20:32;17.20;99.90
49829;DHT22;35723;51.194;5.112;2022-07-03T04:22:58;17.30;99.90
49829;DHT22;35723;51.194;5.112;2022-07-03T04:25:24;17.40;99.90
49829;DHT22;35723;51.194;5.112;2022-07-03T04:27:50;17.40;99.90
49829;DHT22;35723;51.194;5.112;2022-07-03T04:30:16;17.70;99.90
49829;DHT22;35723;51.194;5.112;2022-07-03T04:32:42;17.80;99.90
49829;DHT22;35723;51.194;5.112;2022-07-03T04:35:08;17.80;99.90
49829;DHT22;35723;51.194;5.112;2022-07-03T04:37:34;17.60;99.90
49829;DHT22;35723;51.194;5.112;2022-07-03T04:39:59;17.70;99.90
49829;DHT22;35723;51.194;5.112;2022-07-03T04:42:25;17.80;99.90
49829;DHT22;35723;51.194;5.112;2022-07-03T04:44:51;17.90;99.90
49829;DHT22;35723;51.194;5.112;2022-07-03T04:47:16;17.90;99.90
49829;DHT22;35723;51.194;5.112;2022-07-03T04:49:42;17.80;99.90
49829;DHT22;35723;51.194;5.112;2022-07-03T04:52:08;17.90;99.90
49829;DHT22;35723;51.194;5.112;2022-07-03T04:54:34;18.10;99.90
49829;DHT22;35723;51.194;5.112;2022-07-03T04:57:01;18.00;99.90
49829;DHT22;35723;51.194;5.112;2022-07-03T04:59:27;17.80;99.90
49829;DHT22;35723;51.194;5.112;2022-07-03T05:01:53;17.90;99.90
49829;DHT22;35723;51.194;5.112;2022-07-03T05:04:19;18.00;99.90
49829;DHT22;35723;51.194;5.112;2022-07-03T05:06:44;17.90;99.90
49829;DHT22;35723;51.194;5.112;2022-07-03T05:09:10;17.90;99.90
49829;DHT22;35723;51.194;5.112;2022-07-03T05:11:36;17.90;99.90
49829;DHT22;35723;51.194;5.112;2022-07-03T05:14:03;17.90;99.90
49829;DHT22;35723;51.194;5.112;2022-07-03T05:16:29;17.70;99.90
49829;DHT22;35723;51.194;5.112;2022-07-03T05:18:54;17.70;99.90
49829;DHT22;35723;51.194;5.112;2022-07-03T05:21:20;17.80;99.90
49829;DHT22;35723;51.194;5.112;2022-07-03T05:23:46;17.70;99.90
49829;DHT22;35723;51.194;5.112;2022-07-03T05:26:11;17.90;99.90
49829;DHT22;35723;51.194;5.112;2022-07-03T05:28:37;17.90;99.90
49829;DHT22;35723;51.194;5.112;2022-07-03T05:31:03;17.80;99.90
49829;DHT22;35723;51.194;5.112;2022-07-03T05:33:28;17.80;99.90
49829;DHT22;35723;51.194;5.112;2022-07-03T05:35:55;18.00;99.90
49829;DHT22;35723;51.194;5.112;2022-07-03T05:38:21;18.10;99.90
49829;DHT22;35723;51.194;5.112;2022-07-03T05:41:05;18.10;99.90
49829;DHT22;35723;51.194;5.112;2022-07-03T05:43:31;18.20;99.90
49829;DHT22;35723;51.194;5.112;2022-07-03T05:45:57;17.70;99.90
49829;DHT22;35723;51.194;5.112;2022-07-03T05:48:22;17.70;99.90
49829;DHT22;35723;51.194;5.112;2022-07-03T05:50:48;17.50;99.90
49829;DHT22;35723;51.194;5.112;2022-07-03T05:53:13;17.30;99.90
49829;DHT22;35723;51.194;5.112;2022-07-03T05:55:39;17.60;99.90
49829;DHT22;35723;51.194;5.112;2022-07-03T05:58:05;17.50;99.90
49829;DHT22;35723;51.194;5.112;2022-07-03T06:00:30;17.80;99.90
49829;DHT22;35723;51.194;5.112;2022-07-03T06:02:56;17.90;99.90
49829;DHT22;35723;51.194;5.112;2022-07-03T06:05:21;17.80;99.90
49829;DHT22;35723;51.194;5.112;2022-07-03T06:07:47;17.90;99.90
49829;DHT22;35723;51.194;5.112;2022-07-03T06:10:13;17.90;99.90
49829;DHT22;35723;51.194;5.112;2022-07-03T06:12:38;18.10;99.90
49829;DHT22;35723;51.194;5.112;2022-07-03T06:15:05;18.00;99.90
49829;DHT22;35723;51.194;5.112;2022-07-03T06:17:31;18.10;99.90
49829;DHT22;35723;51.194;5.112;2022-07-03T06:19:56;17.80;99.90
49829;DHT22;35723;51.194;5.112;2022-07-03T06:22:22;17.90;99.90
49829;DHT22;35723;51.194;5.112;2022-07-03T06:24:48;18.10;99.90
49829;DHT22;35723;51.194;5.112;2022-07-03T06:27:13;18.20;99.90
49829;DHT22;35723;51.194;5.112;2022-07-03T06:29:39;18.20;99.90
49829;DHT22;35723;51.194;5.112;2022-07-03T06:32:05;18.30;99.90
49829;DHT22;35723;51.194;5.112;2022-07-03T06:34:30;18.40;99.90
49829;DHT22;35723;51.194;5.112;2022-07-03T06:36:56;18.50;99.90
49829;DHT22;35723;51.194;5.112;2022-07-03T06:39:22;18.60;99.90
49829;DHT22;35723;51.194;5.112;2022-07-03T06:41:47;18.10;99.90
49829;DHT22;35723;51.194;5.112;2022-07-03T06:44:13;18.30;99.90
49829;DHT22;35723;51.194;5.112;2022-07-03T06:46:38;18.20;99.90
49829;DHT22;35723;51.194;5.112;2022-07-03T06:49:04;18.10;99.90
49829;DHT22;35723;51.194;5.112;2022-07-03T06:51:29;18.30;99.90
49829;DHT22;35723;51.194;5.112;2022-07-03T06:53:55;18.00;99.90
49829;DHT22;35723;51.194;5.112;2022-07-03T06:56:22;17.90;99.90
49829;DHT22;35723;51.194;5.112;2022-07-03T06:58:47;18.10;99.90
49829;DHT22;35723;51.194;5.112;2022-07-03T07:01:13;18.30;99.90
49829;DHT22;35723;51.194;5.112;2022-07-03T07:03:39;18.70;99.90
49829;DHT22;35723;51.194;5.112;2022-07-03T07:06:05;18.40;99.90
49829;DHT22;35723;51.194;5.112;2022-07-03T07:08:30;18.00;99.90
49829;DHT22;35723;51.194;5.112;2022-07-03T07:10:56;17.90;99.90
49829;DHT22;35723;51.194;5.112;2022-07-03T07:13:21;17.70;99.90
49829;DHT22;35723;51.194;5.112;2022-07-03T07:15:47;17.70;99.90
49829;DHT22;35723;51.194;5.112;2022-07-03T07:18:13;17.80;99.90
49829;DHT22;35723;51.194;5.112;2022-07-03T07:20:38;18.00;99.90
49829;DHT22;35723;51.194;5.112;2022-07-03T07:23:04;18.40;99.90
49829;DHT22;35723;51.194;5.112;2022-07-03T07:25:30;18.60;99.90
49829;DHT22;35723;51.194;5.112;2022-07-03T07:27:55;18.60;99.90
49829;DHT22;35723;51.194;5.112;2022-07-03T07:30:21;18.60;99.90
49829;DHT22;35723;51.194;5.112;2022-07-03T07:32:46;18.60;99.90
49829;DHT22;35723;51.194;5.112;2022-07-03T07:35:12;18.90;99.90
49829;DHT22;35723;51.194;5.112;2022-07-03T07:37:38;19.00;99.90
49829;DHT22;35723;51.194;5.112;2022-07-03T07:40:04;18.90;99.90
49829;DHT22;35723;51.194;5.112;2022-07-03T07:42:29;18.90;99.90
49829;DHT22;35723;51.194;5.112;2022-07-03T07:44:55;19.00;99.90
49829;DHT22;35723;51.194;5.112;2022-07-03T07:47:21;19.30;99.90
49829;DHT22;35723;51.194;5.112;2022-07-03T07:49:46;18.90;99.90
49829;DHT22;35723;51.194;5.112;2022-07-03T07:52:12;18.90;99.90
49829;DHT22;35723;51.194;5.112;2022-07-03T07:54:37;18.80;99.90
49829;DHT22;35723;51.194;5.112;2022-07-03T07:57:03;19.00;99.90
49829;DHT22;35723;51.194;5.112;2022-07-03T07:59:29;19.00;99.90
49829;DHT22;35723;51.194;5.112;2022-07-03T08:01:55;19.10;99.90
49829;DHT22;35723;51.194;5.112;2022-07-03T08:04:39;19.20;99.90
49829;DHT22;35723;51.194;5.112;2022-07-03T08:07:23;19.10;99.90
49829;DHT22;35723;51.194;5.112;2022-07-03T08:09:48;19.30;99.90
49829;DHT22;35723;51.194;5.112;2022-07-03T08:12:14;19.10;99.90
49829;DHT22;35723;51.194;5.112;2022-07-03T08:14:40;18.90;99.90
49829;DHT22;35723;51.194;5.112;2022-07-03T08:17:06;18.80;99.90
49829;DHT22;35723;51.194;5.112;2022-07-03T08:19:31;18.90;99.90
49829;DHT22;35723;51.194;5.112;2022-07-03T08:21:57;19.00;99.90
49829;DHT22;35723;51.194;5.112;2022-07-03T08:24:23;18.80;99.90
49829;DHT22;35723;51.194;5.112;2022-07-03T08:26:48;18.90;99.90
49829;DHT22;35723;51.194;5.112;2022-07-03T08:29:14;19.10;99.90
49829;DHT22;35723;51.194;5.112;2022-07-03T08:31:40;19.50;99.90
49829;DHT22;35723;51.194;5.112;2022-07-03T08:34:05;19.80;99.90
49829;DHT22;35723;51.194;5.112;2022-07-03T08:36:31;20.00;99.90
49829;DHT22;35723;51.194;5.112;2022-07-03T08:38:56;20.20;99.90
49829;DHT22;35723;51.194;5.112;2022-07-03T08:41:22;19.90;99.90
49829;DHT22;35723;51.194;5.112;2022-07-03T08:43:50;20.00;99.90
49829;DHT22;35723;51.194;5.112;2022-07-03T08:46:17;19.80;99.90
49829;DHT22;35723;51.194;5.112;2022-07-03T08:48:45;19.90;99.90
49829;DHT22;35723;51.194;5.112;2022-07-03T08:51:11;19.70;99.90
49829;DHT22;35723;51.194;5.112;2022-07-03T08:53:37;20.00;99.90
49829;DHT22;35723;51.194;5.112;2022-07-03T08:56:04;20.30;99.90
49829;DHT22;35723;51.194;5.112;2022-07-03T08:58:30;20.60;99.90
49829;DHT22;35723;51.194;5.112;2022-07-03T09:00:56;21.00;99.90
49829;DHT22;35723;51.194;5.112;2022-07-03T09:03:24;21.30;99.90
49829;DHT22;35723;51.194;5.112;2022-07-03T09:05:51;21.20;99.90
49829;DHT22;35723;51.194;5.112;2022-07-03T09:08:17;20.80;99.90
49829;DHT22;35723;51.194;5.112;2022-07-03T09:10:46;20.70;99.90
49829;DHT22;35723;51.194;5.112;2022-07-03T09:13:12;20.50;99.90
49829;DHT22;35723;51.194;5.112;2022-07-03T09:15:38;20.60;99.90
49829;DHT22;35723;51.194;5.112;2022-07-03T09:18:07;20.80;99.90
49829;DHT22;35723;51.194;5.112;2022-07-03T09:20:39;21.20;99.90
49829;DHT22;35723;51.194;5.112;2022-07-03T09:23:17;21.20;99.90
49829;DHT22;35723;51.194;5.112;2022-07-03T09:25:57;21.10;99.90
49829;DHT22;35723;51.194;5.112;2022-07-03T09:28:31;21.20;99.90
49829;DHT22;35723;51.194;5.112;2022-07-03T09:31:07;21.10;99.90
49829;DHT22;35723;51.194;5.112;2022-07-03T09:33:33;21.50;99.90
49829;DHT22;35723;51.194;5.112;2022-07-03T09:35:59;21.80;99.90
49829;DHT22;35723;51.194;5.112;2022-07-03T09:38:25;22.20;99.90
49829;DHT22;35723;51.194;5.112;2022-07-03T09:40:51;22.00;99.90
49829;DHT22;35723;51.194;5.112;2022-07-03T09:43:25;21.40;99.90
49829;DHT22;35723;51.194;5.112;2022-07-03T09:46:02;21.50;99.90
49829;DHT22;35723;51.194;5.112;2022-07-03T09:51:20;22.10;99.90
49829;DHT22;35723;51.194;5.112;2022-07-03T09:56:19;22.70;99.90
49829;DHT22;35723;51.194;5.112;2022-07-03T10:01:33;22.30;99.90
49829;DHT22;35723;51.194;5.112;2022-07-03T10:04:11;21.50;99.90
49829;DHT22;35723;51.194;5.112;2022-07-03T10:06:56;21.80;99.90
49829;DHT22;35723;51.194;5.112;2022-07-03T10:09:33;22.10;99.90
49829;DHT22;35723;51.194;5.112;2022-07-03T10:12:00;22.50;99.90
49829;DHT22;35723;51.194;5.112;2022-07-03T10:14:28;22.70;99.90
49829;DHT22;35723;51.194;5.112;2022-07-03T10:16:54;23.10;99.90
49829;DHT22;35723;51.194;5.112;2022-07-03T10:19:26;22.70;99.90
49829;DHT22;35723;51.194;5.112;2022-07-03T10:22:02;22.70;99.90
49829;DHT22;35723;51.194;5.112;2022-07-03T10:24:30;22.80;99.90
49829;DHT22;35723;51.194;5.112;2022-07-03T10:26:58;22.10;99.90
49829;DHT22;35723;51.194;5.112;2022-07-03T10:29:28;22.50;99.90
49829;DHT22;35723;51.194;5.112;2022-07-03T10:31:54;22.60;99.90
49829;DHT22;35723;51.194;5.112;2022-07-03T10:34:22;22.50;99.90
49829;DHT22;35723;51.194;5.112;2022-07-03T10:36:52;22.80;99.90
49829;DHT22;35723;51.194;5.112;2022-07-03T10:42:15;22.20;99.90
49829;DHT22;35723;51.194;5.112;2022-07-03T10:52:42;21.90;99.90
49829;DHT22;35723;51.194;5.112;2022-07-03T10:55:12;22.10;99.90
49829;DHT22;35723;51.194;5.112;2022-07-03T10:57:39;22.30;99.90
49829;DHT22;35723;51.194;5.112;2022-07-03T11:00:07;22.40;99.90
49829;DHT22;35723;51.194;5.112;2022-07-03T11:02:45;22.40;99.90
49829;DHT22;35723;51.194;5.112;2022-07-03T11:05:22;22.10;99.90
49829;DHT22;35723;51.194;5.112;2022-07-03T11:13:05;22.60;99.90
49829;DHT22;35723;51.194;5.112;2022-07-03T11:15:42;22.70;99.90
49829;DHT22;35723;51.194;5.112;2022-07-03T11:18:25;23.00;99.90
49829;DHT22;35723;51.194;5.112;2022-07-03T11:26:01;23.40;99.90
49829;DHT22;35723;51.194;5.112;2022-07-03T11:33:51;23.70;99.90
49829;DHT22;35723;51.194;5.112;2022-07-03T11:41:45;22.70;99.90
49829;DHT22;35723;51.194;5.112;2022-07-03T11:44:17;22.40;99.90
49829;DHT22;35723;51.194;5.112;2022-07-03T11:46:47;22.40;99.90
49829;DHT22;35723;51.194;5.112;2022-07-03T11:49:18;22.90;99.90
49829;DHT22;35723;51.194;5.112;2022-07-03T11:51:57;23.20;99.90
49829;DHT22;35723;51.194;5.112;2022-07-03T11:54:24;23.30;99.90
49829;DHT22;35723;51.194;5.112;2022-07-03T11:56:50;23.60;99.90
49829;DHT22;35723;51.194;5.112;2022-07-03T11:59:15;23.40;99.90
49829;DHT22;35723;51.194;5.112;2022-07-03T12:01:42;22.80;99.90
49829;DHT22;35723;51.194;5.112;2022-07-03T12:06:51;22.70;99.90
49829;DHT22;35723;51.194;5.112;2022-07-03T12:09:19;23.00;99.90
49829;DHT22;35723;51.194;5.112;2022-07-03T12:17:18;23.40;99.90
49829;DHT22;35723;51.194;5.112;2022-07-03T12:19:52;23.60;99.90
49829;DHT22;35723;51.194;5.112;2022-07-03T12:22:30;23.70;99.90
49829;DHT22;35723;51.194;5.112;2022-07-03T12:25:11;23.60;99.90
49829;DHT22;35723;51.194;5.112;2022-07-03T12:27:41;23.80;99.90
49829;DHT22;35723;51.194;5.112;2022-07-03T12:30:09;23.40;99.90
49829;DHT22;35723;51.194;5.112;2022-07-03T12:32:37;23.50;99.90
49829;DHT22;35723;51.194;5.112;2022-07-03T12:35:03;23.50;99.90
49829;DHT22;35723;51.194;5.112;2022-07-03T12:37:37;23.70;99.90
49829;DHT22;35723;51.194;5.112;2022-07-03T12:40:06;23.80;99.90
49829;DHT22;35723;51.194;5.112;2022-07-03T12:42:46;23.30;99.90
49829;DHT22;35723;51.194;5.112;2022-07-03T12:45:14;22.60;99.90
49829;DHT22;35723;51.194;5.112;2022-07-03T12:47:40;22.70;99.90
49829;DHT22;35723;51.194;5.112;2022-07-03T12:50:07;23.00;99.90
49829;DHT22;35723;51.194;5.112;2022-07-03T12:52:48;23.30;99.00
49829;DHT22;35723;51.194;5.112;2022-07-03T12:55:26;23.00;98.70
49829;DHT22;35723;51.194;5.112;2022-07-03T12:58:14;22.80;98.90
49829;DHT22;35723;51.194;5.112;2022-07-03T13:00:59;23.00;99.10
49829;DHT22;35723;51.194;5.112;2022-07-03T13:03:34;23.40;99.30
49829;DHT22;35723;51.194;5.112;2022-07-03T13:06:00;23.50;98.40
49829;DHT22;35723;51.194;5.112;2022-07-03T13:08:26;23.30;99.20
49829;DHT22;35723;51.194;5.112;2022-07-03T13:10:59;23.60;97.40
49829;DHT22;35723;51.194;5.112;2022-07-03T13:13:25;23.80;97.40
49829;DHT22;35723;51.194;5.112;2022-07-03T13:15:52;23.70;96.70
49829;DHT22;35723;51.194;5.112;2022-07-03T13:18:17;23.60;97.00
49829;DHT22;35723;51.194;5.112;2022-07-03T13:20:43;23.50;96.90
49829;DHT22;35723;51.194;5.112;2022-07-03T13:23:09;23.30;97.10
49829;DHT22;35723;51.194;5.112;2022-07-03T13:25:37;23.50;96.90
49829;DHT22;35723;51.194;5.112;2022-07-03T13:28:13;23.60;95.50
49829;DHT22;35723;51.194;5.112;2022-07-03T13:30:40;23.60;95.80
49829;DHT22;35723;51.194;5.112;2022-07-03T13:33:06;23.60;96.10
49829;DHT22;35723;51.194;5.112;2022-07-03T13:35:32;23.80;95.90
49829;DHT22;35723;51.194;5.112;2022-07-03T13:37:58;23.90;95.40
49829;DHT22;35723;51.194;5.112;2022-07-03T13:40:24;23.60;96.30
49829;DHT22;35723;51.194;5.112;2022-07-03T13:42:49;23.60;96.40
49829;DHT22;35723;51.194;5.112;2022-07-03T13:45:15;23.70;95.60
49829;DHT22;35723;51.194;5.112;2022-07-03T13:47:41;23.70;96.40
49829;DHT22;35723;51.194;5.112;2022-07-03T13:50:08;23.10;96.00
49829;DHT22;35723;51.194;5.112;2022-07-03T13:52:33;23.40;96.90
49829;DHT22;35723;51.194;5.112;2022-07-03T13:54:59;23.60;96.30
49829;DHT22;35723;51.194;5.112;2022-07-03T13:57:24;23.90;95.80
49829;DHT22;35723;51.194;5.112;2022-07-03T13:59:50;24.00;96.20
49829;DHT22;35723;51.194;5.112;2022-07-03T14:02:16;23.90;95.70
49829;DHT22;35723;51.194;5.112;2022-07-03T14:04:41;24.20;95.90
49829;DHT22;35723;51.194;5.112;2022-07-03T14:07:07;24.30;95.00
49829;DHT22;35723;51.194;5.112;2022-07-03T14:09:33;24.20;94.90
49829;DHT22;35723;51.194;5.112;2022-07-03T14:11:59;23.70;95.90
49829;DHT22;35723;51.194;5.112;2022-07-03T14:14:25;23.20;97.90
49829;DHT22;35723;51.194;5.112;2022-07-03T14:16:50;23.40;97.70
49829;DHT22;35723;51.194;5.112;2022-07-03T14:19:16;23.50;97.20
49829;DHT22;35723;51.194;5.112;2022-07-03T14:21:42;23.30;97.00
49829;DHT22;35723;51.194;5.112;2022-07-03T14:24:08;23.20;97.50
49829;DHT22;35723;51.194;5.112;2022-07-03T14:26:34;23.60;95.10
49829;DHT22;35723;51.194;5.112;2022-07-03T14:29:18;23.70;94.30
49829;DHT22;35723;51.194;5.112;2022-07-03T14:32:03;24.10;94.70
49829;DHT22;35723;51.194;5.112;2022-07-03T14:34:47;24.40;93.90
49829;DHT22;35723;51.194;5.112;2022-07-03T14:37:12;23.50;94.60
49829;DHT22;35723;51.194;5.112;2022-07-03T14:39:38;23.10;95.40
49829;DHT22;35723;51.194;5.112;2022-07-03T14:42:04;23.30;95.10
49829;DHT22;35723;51.194;5.112;2022-07-03T14:44:29;23.10;94.70
49829;DHT22;35723;51.194;5.112;2022-07-03T14:46:55;23.40;94.60
49829;DHT22;35723;51.194;5.112;2022-07-03T14:49:21;23.20;94.00
49829;DHT22;35723;51.194;5.112;2022-07-03T14:51:47;23.00;94.80
49829;DHT22;35723;51.194;5.112;2022-07-03T14:54:17;23.30;95.30
49829;DHT22;35723;51.194;5.112;2022-07-03T14:56:49;23.60;96.10
49829;DHT22;35723;51.194;5.112;2022-07-03T14:59:27;22.30;99.40
49829;DHT22;35723;51.194;5.112;2022-07-03T15:01:56;21.80;99.90
49829;DHT22;35723;51.194;5.112;2022-07-03T15:04:48;21.70;99.90
49829;DHT22;35723;51.194;5.112;2022-07-03T15:07:18;21.80;99.90
49829;DHT22;35723;51.194;5.112;2022-07-03T15:10:02;22.00;99.90
49829;DHT22;35723;51.194;5.112;2022-07-03T15:12:30;21.90;99.90
49829;DHT22;35723;51.194;5.112;2022-07-03T15:14:57;21.80;99.90
49829;DHT22;35723;51.194;5.112;2022-07-03T15:17:24;21.90;99.90
49829;DHT22;35723;51.194;5.112;2022-07-03T15:19:51;21.90;99.90
49829;DHT22;35723;51.194;5.112;2022-07-03T15:22:21;21.90;99.90
49829;DHT22;35723;51.194;5.112;2022-07-03T15:24:50;22.00;99.90
49829;DHT22;35723;51.194;5.112;2022-07-03T15:27:21;22.00;99.90
49829;DHT22;35723;51.194;5.112;2022-07-03T15:29:46;22.10;99.90
49829;DHT22;35723;51.194;5.112;2022-07-03T15:32:13;22.10;99.90
49829;DHT22;35723;51.194;5.112;2022-07-03T15:34:39;21.80;99.90
49829;DHT22;35723;51.194;5.112;2022-07-03T15:37:44;22.00;99.90
49829;DHT22;35723;51.194;5.112;2022-07-03T15:40:25;21.70;99.90
49829;DHT22;35723;51.194;5.112;2022-07-03T15:48:55;21.10;99.90
49829;DHT22;35723;51.194;5.112;2022-07-03T15:51:29;21.20;99.90
49829;DHT22;35723;51.194;5.112;2022-07-03T15:53:59;21.30;99.90
49829;DHT22;35723;51.194;5.112;2022-07-03T15:56:31;21.30;99.90
49829;DHT22;35723;51.194;5.112;2022-07-03T15:59:02;21.10;99.90
49829;DHT22;35723;51.194;5.112;2022-07-03T16:01:30;21.20;99.90
49829;DHT22;35723;51.194;5.112;2022-07-03T16:04:22;21.60;99.90
49829;DHT22;35723;51.194;5.112;2022-07-03T16:06:52;21.80;99.90
49829;DHT22;35723;51.194;5.112;2022-07-03T16:09:19;21.60;99.90
49829;DHT22;35723;51.194;5.112;2022-07-03T16:11:46;21.30;99.90
49829;DHT22;35723;51.194;5.112;2022-07-03T16:14:11;21.30;99.90
49829;DHT22;35723;51.194;5.112;2022-07-03T16:16:37;21.20;99.90
49829;DHT22;35723;51.194;5.112;2022-07-03T16:19:05;21.10;99.90
49829;DHT22;35723;51.194;5.112;2022-07-03T16:21:31;21.20;99.90
49829;DHT22;35723;51.194;5.112;2022-07-03T16:24:00;21.40;99.90
49829;DHT22;35723;51.194;5.112;2022-07-03T16:26:29;21.40;99.90
49829;DHT22;35723;51.194;5.112;2022-07-03T16:28:55;21.10;99.70
49829;DHT22;35723;51.194;5.112;2022-07-03T16:31:25;21.10;99.90
49829;DHT22;35723;51.194;5.112;2022-07-03T16:36:47;21.10;99.80
49829;DHT22;35723;51.194;5.112;2022-07-03T16:39:22;21.20;99.80
49829;DHT22;35723;51.194;5.112;2022-07-03T16:41:50;21.30;99.90
49829;DHT22;35723;51.194;5.112;2022-07-03T16:44:20;21.10;99.90
49829;DHT22;35723;51.194;5.112;2022-07-03T16:46:50;21.20;99.80
49829;DHT22;35723;51.194;5.112;2022-07-03T16:49:21;21.00;99.90
49829;DHT22;35723;51.194;5.112;2022-07-03T16:51:52;21.00;99.90
49829;DHT22;35723;51.194;5.112;2022-07-03T16:54:21;21.00;99.90
49829;DHT22;35723;51.194;5.112;2022-07-03T16:56:48;20.80;99.80
49829;DHT22;35723;51.194;5.112;2022-07-03T16:59:16;20.80;99.90
49829;DHT22;35723;51.194;5.112;2022-07-03T17:01:42;20.80;99.90
49829;DHT22;35723;51.194;5.112;2022-07-03T17:04:08;20.80;99.90